Hulbert, MI (49748)

6:30 PM EST on December 25, 2014 (GMT -0500)
Luce County | Change Station
CLOSE
Current Station
Airport
Location: Newberry,
Elevation: 869 ft
Nearby Weather Stations

Elev 869 ft 46.31 °N, 85.46 °W | Updated 15 minutes ago

Overcast
Overcast
32 °F
Feels Like 24 °F
N
9
Wind Variable Wind from SW

Today
High -- | Low -- °F
--% Chance of Precip.
Yesterday
High -- | Low -- °F
Precip. -- in
8:22 AM 4:58 PM
Waxing Crescent, 20% visible
Pressure 29.83 in
Visibility 10.0 miles
Clouds Scattered Clouds 2100 ft
Overcast 6000 ft
Windchill 24 °F
Dew Point 31 °F
Humidity 95%
Rainfall 0.00 in
Snow Depth Not available.
UV 0 out of 12
Pollen .10 out of 12
Air Quality Not available.
Flu Activity Not available.
METAR KERY 252315Z AUTO 22008KT 10SM SCT021 OVC060 00/M01 A2983 RMK AO2 T00011006

More Conditions Fewer Conditions

Pressure 29.83 in
Visibility 10.0 miles
Clouds Scattered Clouds 2100 ft
Overcast 6000 ft
Windchill 24 °F
Dew Point 31 °F
Humidity 95%
Rainfall 0.00 in
Snow Depth Not available.
UV 0 out of 12
Pollen .10 out of 12
Air Quality Not available.
Flu Activity Not available.
METAR KERY 252315Z AUTO 22008KT 10SM SCT021 OVC060 00/M01 A2983 RMK AO2 T00011006

More Conditions Fewer Conditions

Nowcast | as of 6:00 PM EST on December 25, 2014

At 7 PM...cloudy. Temperature 33. Southwest winds 9 mph. At 9 PM...cloudy. Temperature 32. Southwest winds 8 mph. At 11 PM...cloudy...flurries. Temperature 32. Southwest winds 7 mph. At 1 am...cloudy...flurries. Temperature 32. Southwest winds 6 mph.

×

10-Day Weather Forecast

Almanac

Astronomy

Dec. 25, 2014 Rise Set
Actual Time
Civil Twilight
Nautical Twilight
Astronomical Twilight
Moon
Length of Visible Light
Length of Day
Tomorrow will be .
, % of the Moon is Illuminated

Today's Extremes

State Highs State Lows

Community

WunderPhotos

Upload Photos

1,780,454 photos uploaded!

WunderBlogs® & News

Nearby

Air Quality

  Air Quality AQ Index Pollutant
Not available.

Snow Depth

Station Depth Elevation

Earthquake Activity

City Distance Mag. Time & Date
Minimum magnitude displayed is 2.5.

Coastal Water Temperatures

Place Temperature

Nearby Weather Stations